< Typhoon 200203 2002 Season Typhoon 200205 >
Typhoon 200204 (NOGURI)
General InformationTrack Information on Google MapsDetailed Wind InformationList of All Images || NewsDisaster Info.ResourceGoogle EarthGE AnimationAtom FeedGeoJSON
Detalied Best Track (Time Zone = UTC)
Year Month Day Hour Lat. Long. Pressure (hPa) Wind (kt) Class Image Chart
2002 6 4 00 20.2 111.1 1002 0 2 Image Chart
2002 6 4 06 19.8 111.6 1002 0 2 Image Chart
2002 6 4 12 19.5 112.0 1002 0 2 Image Chart
2002 6 4 18 19.0 112.5 1002 0 2 Image Chart
2002 6 5 00 19.5 112.8 1002 0 2 Image Chart
2002 6 5 06 20.0 113.5 1002 0 2 Image Chart
2002 6 5 12 20.0 113.8 1002 0 2 Image Chart
2002 6 5 18 20.0 114.5 1002 0 2 Image Chart
2002 6 6 00 19.5 114.8 1000 0 2 Image Chart
2002 6 6 06 19.5 116.0 1000 0 2 Image Chart
2002 6 6 12 19.5 117.0 1000 0 2 Image Chart
2002 6 6 18 19.9 117.5 1000 0 2 Image Chart
2002 6 7 00 20.3 118.8 1000 0 2 Image Chart
2002 6 7 06 20.5 119.5 1000 0 2 Image Chart
2002 6 7 12 20.5 120.4 1000 0 2 Image Chart
2002 6 7 18 20.6 121.0 1000 0 2 Image Chart
2002 6 8 00 20.5 122.2 1000 0 2 Image Chart
2002 6 8 06 21.2 122.9 998 35 3 Image Chart
2002 6 8 12 21.3 123.7 996 40 3 Image Chart
2002 6 8 18 21.5 124.3 992 40 3 Image Chart
2002 6 9 00 22.6 124.7 990 45 3 Image Chart
2002 6 9 03 23.0 124.7 985 50 4 Image Chart
2002 6 9 06 23.3 124.8 975 60 4 Image Chart
2002 6 9 09 23.6 124.9 975 60 4 Image Chart
2002 6 9 12 23.9 125.0 975 60 4 Image Chart
2002 6 9 15 24.3 125.1 975 60 4 Image Chart
2002 6 9 17 24.6 125.3 975 60 4 Image Chart
2002 6 9 18 24.9 125.5 975 60 4 Image Chart
2002 6 9 21 25.4 125.7 975 60 4 Image Chart
2002 6 10 00 25.8 126.1 975 60 4 Image Chart
2002 6 10 03 26.5 126.4 975 60 4 Image Chart
2002 6 10 06 27.0 126.8 980 55 4 Image Chart
2002 6 10 09 27.7 127.6 980 55 4 Image Chart
2002 6 10 12 28.4 128.4 985 50 4 Image Chart
2002 6 10 15 29.1 129.2 985 50 4 Image Chart
2002 6 10 18 30.5 130.0 990 40 3 Image Chart
2002 6 10 21 31.6 131.7 996 0 2 Image Chart
2002 6 11 00 32.8 133.1 998 0 2 Image Chart
2002 6 11 06 34.4 135.8 999 0 2 Image Chart
Japan Meteorological Agency Best Track Data | Correction Date : 2006-01-18
< Typhoon 200203 2002 Season Typhoon 200205 >

Help